sensor_id;sensor_type;location;lat;lon;timestamp;pressure;altitude;pressure_sealevel;temperature;humidity
76285;BME280;65096;50.998;7.098;2023-02-15T00:01:22;102327.91;;;4.56;51.12
76285;BME280;65096;50.998;7.098;2023-02-15T00:03:49;102318.84;;;4.46;51.43
76285;BME280;65096;50.998;7.098;2023-02-15T00:06:16;102312.94;;;4.47;51.69
76285;BME280;65096;50.998;7.098;2023-02-15T00:08:42;102317.34;;;4.50;51.57
76285;BME280;65096;50.998;7.098;2023-02-15T00:11:11;102314.06;;;4.52;51.67
76285;BME280;65096;50.998;7.098;2023-02-15T00:13:39;102314.00;;;4.51;51.47
76285;BME280;65096;50.998;7.098;2023-02-15T00:16:08;102310.47;;;4.49;51.76
76285;BME280;65096;50.998;7.098;2023-02-15T00:18:36;102287.59;;;4.36;51.69
76285;BME280;65096;50.998;7.098;2023-02-15T00:21:04;102308.47;;;4.43;51.78
76285;BME280;65096;50.998;7.098;2023-02-15T00:23:31;102310.03;;;4.41;51.83
76285;BME280;65096;50.998;7.098;2023-02-15T00:26:05;102308.13;;;4.37;52.13
76285;BME280;65096;50.998;7.098;2023-02-15T00:28:32;102302.72;;;4.33;51.67
76285;BME280;65096;50.998;7.098;2023-02-15T00:31:05;102305.16;;;4.31;51.95
76285;BME280;65096;50.998;7.098;2023-02-15T00:33:31;102300.94;;;4.32;52.35
76285;BME280;65096;50.998;7.098;2023-02-15T00:35:58;102302.34;;;4.27;51.77
76285;BME280;65096;50.998;7.098;2023-02-15T00:38:25;102300.44;;;4.23;51.62
76285;BME280;65096;50.998;7.098;2023-02-15T00:40:53;102298.66;;;4.22;51.45
76285;BME280;65096;50.998;7.098;2023-02-15T00:43:19;102305.16;;;4.17;51.44
76285;BME280;65096;50.998;7.098;2023-02-15T00:45:46;102308.34;;;4.13;51.71
76285;BME280;65096;50.998;7.098;2023-02-15T00:48:15;102299.72;;;4.11;51.96
76285;BME280;65096;50.998;7.098;2023-02-15T00:50:43;102306.41;;;4.09;52.36
76285;BME280;65096;50.998;7.098;2023-02-15T00:53:10;102316.44;;;4.06;52.26
76285;BME280;65096;50.998;7.098;2023-02-15T00:55:37;102315.41;;;4.02;52.25
76285;BME280;65096;50.998;7.098;2023-02-15T00:58:05;102310.00;;;3.98;52.43
76285;BME280;65096;50.998;7.098;2023-02-15T01:00:32;102312.38;;;3.95;52.04
76285;BME280;65096;50.998;7.098;2023-02-15T01:02:58;102302.00;;;3.92;52.21
76285;BME280;65096;50.998;7.098;2023-02-15T01:05:26;102301.81;;;3.89;52.41
76285;BME280;65096;50.998;7.098;2023-02-15T01:07:54;102302.53;;;3.86;52.47
76285;BME280;65096;50.998;7.098;2023-02-15T01:10:21;102295.56;;;3.84;52.14
76285;BME280;65096;50.998;7.098;2023-02-15T01:12:49;102298.66;;;3.78;52.50
76285;BME280;65096;50.998;7.098;2023-02-15T01:15:16;102302.00;;;3.77;52.53
76285;BME280;65096;50.998;7.098;2023-02-15T01:17:43;102300.91;;;3.74;52.62
76285;BME280;65096;50.998;7.098;2023-02-15T01:20:11;102295.72;;;3.72;52.42
76285;BME280;65096;50.998;7.098;2023-02-15T01:22:39;102301.63;;;3.71;52.49
76285;BME280;65096;50.998;7.098;2023-02-15T01:25:06;102295.56;;;3.69;52.39
76285;BME280;65096;50.998;7.098;2023-02-15T01:27:33;102295.19;;;3.63;52.50
76285;BME280;65096;50.998;7.098;2023-02-15T01:30:00;102284.56;;;3.56;52.46
76285;BME280;65096;50.998;7.098;2023-02-15T01:32:26;102289.91;;;3.60;52.61
76285;BME280;65096;50.998;7.098;2023-02-15T01:34:53;102287.88;;;3.55;53.41
76285;BME280;65096;50.998;7.098;2023-02-15T01:37:20;102284.25;;;3.51;53.24
76285;BME280;65096;50.998;7.098;2023-02-15T01:39:48;102274.59;;;3.45;52.96
76285;BME280;65096;50.998;7.098;2023-02-15T01:42:20;102278.03;;;3.46;53.71
76285;BME280;65096;50.998;7.098;2023-02-15T01:44:48;102276.16;;;3.43;52.49
76285;BME280;65096;50.998;7.098;2023-02-15T01:47:18;102269.97;;;3.40;53.38
76285;BME280;65096;50.998;7.098;2023-02-15T01:49:48;102276.59;;;3.36;53.21
76285;BME280;65096;50.998;7.098;2023-02-15T01:52:18;102276.38;;;3.33;53.58
76285;BME280;65096;50.998;7.098;2023-02-15T01:54:48;102281.47;;;3.33;53.06
76285;BME280;65096;50.998;7.098;2023-02-15T01:57:18;102277.38;;;3.35;53.46
76285;BME280;65096;50.998;7.098;2023-02-15T01:59:52;102272.09;;;3.32;53.71
76285;BME280;65096;50.998;7.098;2023-02-15T02:02:20;102271.09;;;3.30;53.39
76285;BME280;65096;50.998;7.098;2023-02-15T02:04:50;102265.72;;;3.26;53.25
76285;BME280;65096;50.998;7.098;2023-02-15T02:07:20;102263.00;;;3.23;53.54
76285;BME280;65096;50.998;7.098;2023-02-15T02:09:50;102270.47;;;3.20;53.25
76285;BME280;65096;50.998;7.098;2023-02-15T02:12:17;102260.88;;;3.16;53.35
76285;BME280;65096;50.998;7.098;2023-02-15T02:14:45;102263.22;;;3.13;53.08
76285;BME280;65096;50.998;7.098;2023-02-15T02:17:16;102263.13;;;3.11;54.00
76285;BME280;65096;50.998;7.098;2023-02-15T02:23:17;102251.69;;;3.05;54.00
76285;BME280;65096;50.998;7.098;2023-02-15T02:26:29;102252.41;;;3.02;54.87
76285;BME280;65096;50.998;7.098;2023-02-15T02:29:33;102253.78;;;2.97;54.12
76285;BME280;65096;50.998;7.098;2023-02-15T02:35:01;102243.03;;;2.88;53.31
76285;BME280;65096;50.998;7.098;2023-02-15T02:37:39;102243.81;;;2.87;53.71
76285;BME280;65096;50.998;7.098;2023-02-15T02:40:14;102237.66;;;2.84;53.71
76285;BME280;65096;50.998;7.098;2023-02-15T02:42:49;102231.50;;;2.80;53.95
76285;BME280;65096;50.998;7.098;2023-02-15T02:45:25;102197.94;;;2.60;54.27
76285;BME280;65096;50.998;7.098;2023-02-15T02:47:58;102227.78;;;2.75;53.56
76285;BME280;65096;50.998;7.098;2023-02-15T02:50:30;102224.34;;;2.75;53.51
76285;BME280;65096;50.998;7.098;2023-02-15T02:52:58;102224.16;;;2.72;53.65
76285;BME280;65096;50.998;7.098;2023-02-15T02:55:28;102218.09;;;2.70;53.99
76285;BME280;65096;50.998;7.098;2023-02-15T02:57:59;102221.25;;;2.66;53.68
76285;BME280;65096;50.998;7.098;2023-02-15T03:00:30;102211.81;;;2.65;54.09
76285;BME280;65096;50.998;7.098;2023-02-15T03:03:02;102210.78;;;2.61;54.37
76285;BME280;65096;50.998;7.098;2023-02-15T03:05:34;102212.34;;;2.59;54.05
76285;BME280;65096;50.998;7.098;2023-02-15T03:08:04;102202.81;;;2.57;54.19
76285;BME280;65096;50.998;7.098;2023-02-15T03:10:35;102202.72;;;2.55;54.21
76285;BME280;65096;50.998;7.098;2023-02-15T03:13:05;102190.63;;;2.51;53.82
76285;BME280;65096;50.998;7.098;2023-02-15T03:15:34;102199.06;;;2.50;54.08
76285;BME280;65096;50.998;7.098;2023-02-15T03:18:16;102197.97;;;2.47;54.38
76285;BME280;65096;50.998;7.098;2023-02-15T03:20:45;102189.25;;;2.43;53.96
76285;BME280;65096;50.998;7.098;2023-02-15T03:23:17;102206.09;;;2.41;54.42
76285;BME280;65096;50.998;7.098;2023-02-15T03:25:49;102182.81;;;2.35;54.41
76285;BME280;65096;50.998;7.098;2023-02-15T03:28:19;102192.28;;;2.38;54.22
76285;BME280;65096;50.998;7.098;2023-02-15T03:30:51;102183.78;;;2.37;54.50
76285;BME280;65096;50.998;7.098;2023-02-15T03:33:21;102193.66;;;2.33;54.24
76285;BME280;65096;50.998;7.098;2023-02-15T03:35:56;102201.00;;;2.28;54.55
76285;BME280;65096;50.998;7.098;2023-02-15T03:38:29;102194.19;;;2.27;54.75
76285;BME280;65096;50.998;7.098;2023-02-15T03:41:01;102192.22;;;2.23;54.59
76285;BME280;65096;50.998;7.098;2023-02-15T03:43:42;102186.94;;;2.20;55.00
76285;BME280;65096;50.998;7.098;2023-02-15T03:46:17;102191.06;;;2.18;54.82
76285;BME280;65096;50.998;7.098;2023-02-15T03:48:50;102188.28;;;2.15;55.30
76285;BME280;65096;50.998;7.098;2023-02-15T03:51:22;102188.00;;;2.11;54.54
76285;BME280;65096;50.998;7.098;2023-02-15T03:54:06;102190.47;;;2.09;54.55
76285;BME280;65096;50.998;7.098;2023-02-15T03:56:37;102181.84;;;2.07;54.83
76285;BME280;65096;50.998;7.098;2023-02-15T03:59:04;102179.09;;;2.04;54.68
76285;BME280;65096;50.998;7.098;2023-02-15T04:01:55;102176.38;;;2.01;55.04
76285;BME280;65096;50.998;7.098;2023-02-15T04:04:27;102171.19;;;1.99;54.73
76285;BME280;65096;50.998;7.098;2023-02-15T04:06:58;102176.28;;;1.99;55.76
76285;BME280;65096;50.998;7.098;2023-02-15T04:09:24;102184.41;;;1.94;54.44
76285;BME280;65096;50.998;7.098;2023-02-15T04:12:08;102178.63;;;1.96;54.86
76285;BME280;65096;50.998;7.098;2023-02-15T04:14:35;102186.16;;;1.95;54.96
76285;BME280;65096;50.998;7.098;2023-02-15T04:17:20;102196.16;;;1.92;54.77
76285;BME280;65096;50.998;7.098;2023-02-15T04:19:46;102197.56;;;1.88;55.38
76285;BME280;65096;50.998;7.098;2023-02-15T04:22:32;102184.06;;;1.76;54.96
76285;BME280;65096;50.998;7.098;2023-02-15T04:25:17;102195.41;;;1.81;55.17
76285;BME280;65096;50.998;7.098;2023-02-15T04:27:45;102186.72;;;1.78;55.21
76285;BME280;65096;50.998;7.098;2023-02-15T04:30:13;102176.53;;;1.65;55.32
76285;BME280;65096;50.998;7.098;2023-02-15T04:32:40;102189.81;;;1.74;55.29
76285;BME280;65096;50.998;7.098;2023-02-15T04:35:07;102191.38;;;1.72;54.99
76285;BME280;65096;50.998;7.098;2023-02-15T04:37:36;102191.47;;;1.73;55.15
76285;BME280;65096;50.998;7.098;2023-02-15T04:40:03;102181.00;;;1.69;55.15
76285;BME280;65096;50.998;7.098;2023-02-15T04:42:30;102182.59;;;1.67;55.43
76285;BME280;65096;50.998;7.098;2023-02-15T04:44:57;102177.38;;;1.65;55.25
76285;BME280;65096;50.998;7.098;2023-02-15T04:47:25;102176.44;;;1.63;55.39
76285;BME280;65096;50.998;7.098;2023-02-15T04:49:51;102171.03;;;1.59;56.76
76285;BME280;65096;50.998;7.098;2023-02-15T04:52:18;102164.59;;;1.51;56.60
76285;BME280;65096;50.998;7.098;2023-02-15T04:54:46;102171.72;;;1.56;56.13
76285;BME280;65096;50.998;7.098;2023-02-15T04:57:13;102170.81;;;1.56;55.92
76285;BME280;65096;50.998;7.098;2023-02-15T04:59:40;102169.06;;;1.55;55.91
76285;BME280;65096;50.998;7.098;2023-02-15T05:02:06;102169.16;;;1.56;55.91
76285;BME280;65096;50.998;7.098;2023-02-15T05:04:34;102163.00;;;1.53;56.05
76285;BME280;65096;50.998;7.098;2023-02-15T05:07:01;102168.88;;;1.52;56.18
76285;BME280;65096;50.998;7.098;2023-02-15T05:09:27;102167.22;;;1.52;55.99
76285;BME280;65096;50.998;7.098;2023-02-15T05:11:55;102130.69;;;1.26;56.39
76285;BME280;65096;50.998;7.098;2023-02-15T05:14:22;102172.09;;;1.49;55.52
76285;BME280;65096;50.998;7.098;2023-02-15T05:16:49;102162.59;;;1.47;55.75
76285;BME280;65096;50.998;7.098;2023-02-15T05:19:15;102159.88;;;1.44;55.95
76285;BME280;65096;50.998;7.098;2023-02-15T05:21:42;102164.06;;;1.43;55.92
76285;BME280;65096;50.998;7.098;2023-02-15T05:24:09;102159.66;;;1.41;56.84
76285;BME280;65096;50.998;7.098;2023-02-15T05:26:49;102160.22;;;1.37;56.08
76285;BME280;65096;50.998;7.098;2023-02-15T05:29:31;102165.50;;;1.40;55.93
76285;BME280;65096;50.998;7.098;2023-02-15T05:31:58;102168.84;;;1.39;56.23
76285;BME280;65096;50.998;7.098;2023-02-15T05:34:24;102164.44;;;1.36;56.53
76285;BME280;65096;50.998;7.098;2023-02-15T05:36:51;102164.75;;;1.41;56.53
76285;BME280;65096;50.998;7.098;2023-02-15T05:39:18;102170.38;;;1.37;56.36
76285;BME280;65096;50.998;7.098;2023-02-15T05:41:44;102166.09;;;1.36;56.54
76285;BME280;65096;50.998;7.098;2023-02-15T05:44:11;102173.72;;;1.36;56.19
76285;BME280;65096;50.998;7.098;2023-02-15T05:46:39;102169.09;;;1.30;56.92
76285;BME280;65096;50.998;7.098;2023-02-15T05:49:06;102176.06;;;1.33;56.68
76285;BME280;65096;50.998;7.098;2023-02-15T05:51:33;102169.91;;;1.29;56.98
76285;BME280;65096;50.998;7.098;2023-02-15T05:53:59;102166.25;;;1.26;56.67
76285;BME280;65096;50.998;7.098;2023-02-15T05:56:26;102157.56;;;1.22;56.95
76285;BME280;65096;50.998;7.098;2023-02-15T05:58:53;102156.41;;;1.17;57.89
76285;BME280;65096;50.998;7.098;2023-02-15T06:01:20;102162.91;;;1.14;57.10
76285;BME280;65096;50.998;7.098;2023-02-15T06:03:49;102168.50;;;1.21;56.94
76285;BME280;65096;50.998;7.098;2023-02-15T06:06:17;102161.69;;;1.20;56.99
76285;BME280;65096;50.998;7.098;2023-02-15T06:08:44;102157.06;;;1.15;57.56
76285;BME280;65096;50.998;7.098;2023-02-15T06:11:10;102109.97;;;0.82;57.30
76285;BME280;65096;50.998;7.098;2023-02-15T06:13:37;102167.91;;;1.12;57.24
76285;BME280;65096;50.998;7.098;2023-02-15T06:16:04;102165.66;;;1.17;57.55
76285;BME280;65096;50.998;7.098;2023-02-15T06:18:31;102166.44;;;1.16;57.40
76285;BME280;65096;50.998;7.098;2023-02-15T06:20:59;102164.78;;;1.16;58.15
76285;BME280;65096;50.998;7.098;2023-02-15T06:23:25;102155.19;;;1.12;57.52
76285;BME280;65096;50.998;7.098;2023-02-15T06:25:52;102162.91;;;1.14;57.16
76285;BME280;65096;50.998;7.098;2023-02-15T06:28:19;102160.06;;;1.09;57.63
76285;BME280;65096;50.998;7.098;2023-02-15T06:30:46;102164.47;;;1.12;57.20
76285;BME280;65096;50.998;7.098;2023-02-15T06:33:13;102148.94;;;1.07;57.43
76285;BME280;65096;50.998;7.098;2023-02-15T06:35:39;102125.06;;;0.81;57.37
76285;BME280;65096;50.998;7.098;2023-02-15T06:38:07;102166.72;;;1.07;57.68
76285;BME280;65096;50.998;7.098;2023-02-15T06:40:34;102173.44;;;1.07;57.88
76285;BME280;65096;50.998;7.098;2023-02-15T06:43:01;102176.66;;;1.04;57.94
76285;BME280;65096;50.998;7.098;2023-02-15T06:45:27;102171.47;;;1.03;58.27
76285;BME280;65096;50.998;7.098;2023-02-15T06:47:54;102177.31;;;1.02;58.87
76285;BME280;65096;50.998;7.098;2023-02-15T06:50:21;102182.41;;;1.02;57.87
76285;BME280;65096;50.998;7.098;2023-02-15T06:52:48;102179.19;;;1.04;58.06
76285;BME280;65096;50.998;7.098;2023-02-15T06:55:16;102180.84;;;1.04;58.19
76285;BME280;65096;50.998;7.098;2023-02-15T06:57:42;102174.13;;;1.04;57.74
76285;BME280;65096;50.998;7.098;2023-02-15T07:00:10;102185.38;;;1.08;58.03
76285;BME280;65096;50.998;7.098;2023-02-15T07:02:37;102174.53;;;1.10;58.10
76285;BME280;65096;50.998;7.098;2023-02-15T07:05:04;102173.53;;;1.08;57.50
76285;BME280;65096;50.998;7.098;2023-02-15T07:07:31;102176.88;;;1.07;58.21
76285;BME280;65096;50.998;7.098;2023-02-15T07:09:57;102179.72;;;1.12;57.82
76285;BME280;65096;50.998;7.098;2023-02-15T07:12:25;102173.63;;;1.10;57.66
76285;BME280;65096;50.998;7.098;2023-02-15T07:15:12;102177.75;;;1.08;57.80
76285;BME280;65096;50.998;7.098;2023-02-15T07:17:39;102177.53;;;1.05;57.46
76285;BME280;65096;50.998;7.098;2023-02-15T07:20:08;102163.06;;;1.04;57.95
76285;BME280;65096;50.998;7.098;2023-02-15T07:22:35;102179.31;;;1.06;57.83
76285;BME280;65096;50.998;7.098;2023-02-15T07:25:03;102176.66;;;1.04;57.99
76285;BME280;65096;50.998;7.098;2023-02-15T07:27:31;102170.25;;;1.09;57.73
76285;BME280;65096;50.998;7.098;2023-02-15T07:29:58;102169.25;;;1.07;58.38
76285;BME280;65096;50.998;7.098;2023-02-15T07:32:29;102165.22;;;0.98;59.63
76285;BME280;65096;50.998;7.098;2023-02-15T07:34:57;102159.94;;;0.95;61.73
76285;BME280;65096;50.998;7.098;2023-02-15T07:37:24;102150.31;;;0.91;59.65
76285;BME280;65096;50.998;7.098;2023-02-15T07:39:51;102149.56;;;0.92;59.60
76285;BME280;65096;50.998;7.098;2023-02-15T07:42:17;102143.91;;;0.96;60.30
76285;BME280;65096;50.998;7.098;2023-02-15T07:44:46;102142.50;;;0.88;60.85
76285;BME280;65096;50.998;7.098;2023-02-15T07:47:13;102131.09;;;0.94;59.77
76285;BME280;65096;50.998;7.098;2023-02-15T07:49:39;102127.22;;;0.99;61.88
76285;BME280;65096;50.998;7.098;2023-02-15T07:52:06;102122.03;;;0.98;62.05
76285;BME280;65096;50.998;7.098;2023-02-15T07:54:33;102111.78;;;0.96;62.33
76285;BME280;65096;50.998;7.098;2023-02-15T07:57:00;102112.47;;;1.07;62.62
76285;BME280;65096;50.998;7.098;2023-02-15T07:59:27;102114.94;;;1.18;62.25
76285;BME280;65096;50.998;7.098;2023-02-15T08:01:55;102111.00;;;1.35;62.20
76285;BME280;65096;50.998;7.098;2023-02-15T08:04:23;102083.31;;;1.26;61.55
76285;BME280;65096;50.998;7.098;2023-02-15T08:06:52;102100.91;;;1.62;60.25
76285;BME280;65096;50.998;7.098;2023-02-15T08:09:19;102103.88;;;1.94;59.53
76285;BME280;65096;50.998;7.098;2023-02-15T08:11:46;102108.22;;;2.23;59.14
76285;BME280;65096;50.998;7.098;2023-02-15T08:14:15;102104.09;;;2.66;58.57
76285;BME280;65096;50.998;7.098;2023-02-15T08:16:43;102110.75;;;2.91;57.36
76285;BME280;65096;50.998;7.098;2023-02-15T08:19:13;102103.91;;;3.19;56.86
76285;BME280;65096;50.998;7.098;2023-02-15T08:21:41;102102.59;;;3.55;55.57
76285;BME280;65096;50.998;7.098;2023-02-15T08:24:10;102100.03;;;3.70;55.12
76285;BME280;65096;50.998;7.098;2023-02-15T08:26:37;102095.00;;;3.71;54.51
76285;BME280;65096;50.998;7.098;2023-02-15T08:29:05;102089.84;;;4.00;53.61
76285;BME280;65096;50.998;7.098;2023-02-15T08:31:33;102083.91;;;4.32;52.87
76285;BME280;65096;50.998;7.098;2023-02-15T08:34:00;102085.53;;;4.62;52.59
76285;BME280;65096;50.998;7.098;2023-02-15T08:36:30;102085.38;;;4.75;52.16
76285;BME280;65096;50.998;7.098;2023-02-15T08:38:58;102095.09;;;4.98;51.08
76285;BME280;65096;50.998;7.098;2023-02-15T08:41:27;102085.47;;;5.10;50.74
76285;BME280;65096;50.998;7.098;2023-02-15T08:43:57;102078.88;;;5.31;51.61
76285;BME280;65096;50.998;7.098;2023-02-15T08:46:26;102080.81;;;5.70;49.55
76285;BME280;65096;50.998;7.098;2023-02-15T08:48:54;102076.34;;;5.66;49.51
76285;BME280;65096;50.998;7.098;2023-02-15T08:51:22;102074.06;;;5.90;47.95
76285;BME280;65096;50.998;7.098;2023-02-15T08:53:52;102064.50;;;5.86;47.97
76285;BME280;65096;50.998;7.098;2023-02-15T08:56:20;102062.44;;;6.15;48.29
76285;BME280;65096;50.998;7.098;2023-02-15T08:58:48;102057.38;;;6.54;48.39
76285;BME280;65096;50.998;7.098;2023-02-15T09:01:17;102061.72;;;6.55;46.70
76285;BME280;65096;50.998;7.098;2023-02-15T09:03:46;102055.69;;;6.73;45.89
76285;BME280;65096;50.998;7.098;2023-02-15T09:06:13;102054.59;;;6.68;46.69
76285;BME280;65096;50.998;7.098;2023-02-15T09:08:40;102062.78;;;6.79;45.88
76285;BME280;65096;50.998;7.098;2023-02-15T09:11:14;102056.78;;;6.99;45.76
76285;BME280;65096;50.998;7.098;2023-02-15T09:13:42;102038.66;;;7.56;44.69
76285;BME280;65096;50.998;7.098;2023-02-15T09:16:09;102058.19;;;8.17;43.09
76285;BME280;65096;50.998;7.098;2023-02-15T09:18:38;102059.19;;;8.44;41.79
76285;BME280;65096;50.998;7.098;2023-02-15T09:21:06;102053.25;;;8.45;43.46
76285;BME280;65096;50.998;7.098;2023-02-15T09:23:33;102058.19;;;8.63;41.11
76285;BME280;65096;50.998;7.098;2023-02-15T09:26:05;102057.50;;;8.92;41.63
76285;BME280;65096;50.998;7.098;2023-02-15T09:28:34;102052.56;;;8.98;41.35
76285;BME280;65096;50.998;7.098;2023-02-15T09:31:09;102051.66;;;8.72;40.64
76285;BME280;65096;50.998;7.098;2023-02-15T09:33:36;102045.00;;;9.02;40.88
76285;BME280;65096;50.998;7.098;2023-02-15T09:36:05;102049.50;;;9.33;41.91
76285;BME280;65096;50.998;7.098;2023-02-15T09:38:32;102053.38;;;9.47;40.69
76285;BME280;65096;50.998;7.098;2023-02-15T09:41:13;102051.72;;;9.76;39.30
76285;BME280;65096;50.998;7.098;2023-02-15T09:43:55;102070.97;;;9.60;39.24
76285;BME280;65096;50.998;7.098;2023-02-15T09:46:33;102070.22;;;9.38;40.02
76285;BME280;65096;50.998;7.098;2023-02-15T09:49:15;102075.00;;;9.52;39.22
76285;BME280;65096;50.998;7.098;2023-02-15T09:52:08;102075.25;;;9.86;39.17
76285;BME280;65096;50.998;7.098;2023-02-15T09:54:52;102063.75;;;10.33;37.90
76285;BME280;65096;50.998;7.098;2023-02-15T09:57:27;102062.13;;;10.97;37.42
76285;BME280;65096;50.998;7.098;2023-02-15T10:00:06;102056.84;;;11.25;36.98
76285;BME280;65096;50.998;7.098;2023-02-15T10:02:48;102057.34;;;11.11;35.85
76285;BME280;65096;50.998;7.098;2023-02-15T10:05:25;102058.69;;;11.31;35.99
76285;BME280;65096;50.998;7.098;2023-02-15T10:08:19;102046.44;;;11.93;35.72
76285;BME280;65096;50.998;7.098;2023-02-15T10:10:54;102048.06;;;11.90;36.04
76285;BME280;65096;50.998;7.098;2023-02-15T10:13:50;102042.16;;;11.94;34.70
76285;BME280;65096;50.998;7.098;2023-02-15T10:16:31;102035.31;;;11.96;34.68
76285;BME280;65096;50.998;7.098;2023-02-15T10:19:04;102034.63;;;12.46;36.17
76285;BME280;65096;50.998;7.098;2023-02-15T10:21:43;102038.44;;;12.63;34.65
76285;BME280;65096;50.998;7.098;2023-02-15T10:27:04;102002.91;;;12.55;34.47
76285;BME280;65096;50.998;7.098;2023-02-15T10:29:36;102033.59;;;12.38;34.14
76285;BME280;65096;50.998;7.098;2023-02-15T10:32:15;102024.75;;;12.27;33.80
76285;BME280;65096;50.998;7.098;2023-02-15T10:34:51;102025.63;;;12.28;35.59
76285;BME280;65096;50.998;7.098;2023-02-15T10:37:45;102029.13;;;12.71;34.42
76285;BME280;65096;50.998;7.098;2023-02-15T10:40:22;102031.31;;;12.53;34.31
76285;BME280;65096;50.998;7.098;2023-02-15T10:45:53;102022.16;;;12.69;36.09
76285;BME280;65096;50.998;7.098;2023-02-15T10:48:40;102025.69;;;13.23;33.02
76285;BME280;65096;50.998;7.098;2023-02-15T10:51:16;102025.81;;;12.81;33.08
76285;BME280;65096;50.998;7.098;2023-02-15T10:54:04;102029.06;;;13.17;33.55
76285;BME280;65096;50.998;7.098;2023-02-15T10:56:36;102023.97;;;13.22;33.95
76285;BME280;65096;50.998;7.098;2023-02-15T10:59:20;102012.22;;;12.93;33.49
76285;BME280;65096;50.998;7.098;2023-02-15T11:01:56;102022.06;;;12.64;34.38
76285;BME280;65096;50.998;7.098;2023-02-15T11:04:43;102008.50;;;13.28;32.94
76285;BME280;65096;50.998;7.098;2023-02-15T11:07:16;102004.69;;;13.59;33.56
76285;BME280;65096;50.998;7.098;2023-02-15T11:09:48;101995.19;;;13.58;33.79
76285;BME280;65096;50.998;7.098;2023-02-15T11:12:19;101987.88;;;13.92;32.92
76285;BME280;65096;50.998;7.098;2023-02-15T11:14:51;101979.25;;;13.95;31.79
76285;BME280;65096;50.998;7.098;2023-02-15T11:17:24;101975.75;;;13.90;31.91
76285;BME280;65096;50.998;7.098;2023-02-15T11:19:59;101987.47;;;14.28;33.76
76285;BME280;65096;50.998;7.098;2023-02-15T11:22:30;101954.47;;;14.16;33.30
76285;BME280;65096;50.998;7.098;2023-02-15T11:25:00;101979.56;;;14.19;32.08
76285;BME280;65096;50.998;7.098;2023-02-15T11:27:30;101974.47;;;14.25;33.32
76285;BME280;65096;50.998;7.098;2023-02-15T11:30:01;101971.75;;;14.16;33.81
76285;BME280;65096;50.998;7.098;2023-02-15T11:32:32;101964.56;;;13.94;33.74
76285;BME280;65096;50.998;7.098;2023-02-15T11:35:03;101967.19;;;13.98;33.12
76285;BME280;65096;50.998;7.098;2023-02-15T11:37:36;101954.81;;;13.75;33.11
76285;BME280;65096;50.998;7.098;2023-02-15T11:40:17;101956.34;;;13.59;33.21
76285;BME280;65096;50.998;7.098;2023-02-15T11:42:47;101950.13;;;13.51;33.83
76285;BME280;65096;50.998;7.098;2023-02-15T11:45:21;101945.38;;;13.80;34.12
76285;BME280;65096;50.998;7.098;2023-02-15T11:47:49;101951.94;;;13.55;33.49
76285;BME280;65096;50.998;7.098;2023-02-15T11:50:20;101950.13;;;13.51;33.79
76285;BME280;65096;50.998;7.098;2023-02-15T11:52:48;101946.56;;;13.43;35.07
76285;BME280;65096;50.998;7.098;2023-02-15T11:55:20;101952.72;;;13.51;34.46
76285;BME280;65096;50.998;7.098;2023-02-15T11:57:54;101958.16;;;13.09;34.60
76285;BME280;65096;50.998;7.098;2023-02-15T12:00:31;101957.53;;;13.25;34.42
76285;BME280;65096;50.998;7.098;2023-02-15T12:03:03;101944.78;;;13.39;34.58
76285;BME280;65096;50.998;7.098;2023-02-15T12:05:35;101944.84;;;13.45;34.24
76285;BME280;65096;50.998;7.098;2023-02-15T12:08:10;101939.34;;;13.21;35.01
76285;BME280;65096;50.998;7.098;2023-02-15T12:10:42;101926.41;;;13.22;35.30
76285;BME280;65096;50.998;7.098;2023-02-15T12:13:14;101933.63;;;12.89;34.79
76285;BME280;65096;50.998;7.098;2023-02-15T12:15:44;101933.38;;;12.73;35.57
76285;BME280;65096;50.998;7.098;2023-02-15T12:18:20;101917.47;;;12.53;35.66
76285;BME280;65096;50.998;7.098;2023-02-15T12:20:49;101919.50;;;12.69;35.80
76285;BME280;65096;50.998;7.098;2023-02-15T12:23:17;101880.56;;;12.62;36.15
76285;BME280;65096;50.998;7.098;2023-02-15T12:25:51;101911.84;;;12.77;36.47
76285;BME280;65096;50.998;7.098;2023-02-15T12:28:25;101912.88;;;12.86;35.72
76285;BME280;65096;50.998;7.098;2023-02-15T12:30:54;101912.28;;;13.02;35.53
76285;BME280;65096;50.998;7.098;2023-02-15T12:33:27;101891.50;;;12.98;34.65
76285;BME280;65096;50.998;7.098;2023-02-15T12:36:00;101906.91;;;12.89;35.73
76285;BME280;65096;50.998;7.098;2023-02-15T12:38:28;101890.41;;;12.84;35.42
76285;BME280;65096;50.998;7.098;2023-02-15T12:40:58;101894.94;;;12.97;35.36
76285;BME280;65096;50.998;7.098;2023-02-15T12:43:26;101886.91;;;12.80;35.18
76285;BME280;65096;50.998;7.098;2023-02-15T12:46:12;101896.41;;;12.83;35.38
76285;BME280;65096;50.998;7.098;2023-02-15T12:48:40;101882.78;;;12.93;35.35
76285;BME280;65096;50.998;7.098;2023-02-15T12:51:08;101887.53;;;12.66;35.32
76285;BME280;65096;50.998;7.098;2023-02-15T12:53:36;101885.69;;;12.60;35.91
76285;BME280;65096;50.998;7.098;2023-02-15T12:56:04;101879.59;;;12.55;35.57
76285;BME280;65096;50.998;7.098;2023-02-15T12:58:33;101878.19;;;12.75;36.39
76285;BME280;65096;50.998;7.098;2023-02-15T13:01:10;101866.03;;;12.70;35.93
76285;BME280;65096;50.998;7.098;2023-02-15T13:03:40;101872.13;;;12.75;35.62
76285;BME280;65096;50.998;7.098;2023-02-15T13:06:20;101867.22;;;12.91;36.03
76285;BME280;65096;50.998;7.098;2023-02-15T13:08:49;101862.44;;;13.17;35.63
76285;BME280;65096;50.998;7.098;2023-02-15T13:11:21;101864.88;;;13.06;35.29
76285;BME280;65096;50.998;7.098;2023-02-15T13:13:52;101853.81;;;13.19;35.48
76285;BME280;65096;50.998;7.098;2023-02-15T13:16:27;101854.22;;;13.48;34.58
76285;BME280;65096;50.998;7.098;2023-02-15T13:18:57;101845.75;;;13.60;34.03
76285;BME280;65096;50.998;7.098;2023-02-15T13:21:35;101847.56;;;13.67;34.16
76285;BME280;65096;50.998;7.098;2023-02-15T13:24:10;101853.00;;;13.89;33.59
76285;BME280;65096;50.998;7.098;2023-02-15T13:26:42;101840.94;;;13.93;34.15
76285;BME280;65096;50.998;7.098;2023-02-15T13:29:17;101827.09;;;13.92;34.28